createdAt,value
2023-10-01T00:03:07.390Z,8.15
2023-10-01T00:08:14.041Z,9.15
2023-10-01T00:13:16.850Z,8.05
2023-10-01T00:18:18.989Z,7.90
2023-10-01T00:23:20.593Z,8.68
2023-10-01T00:28:22.233Z,7.03
2023-10-01T00:33:27.802Z,6.25
2023-10-01T00:38:29.826Z,7.95
2023-10-01T00:43:34.066Z,7.53
2023-10-01T00:48:37.844Z,8.73
2023-10-01T00:53:40.158Z,8.35
2023-10-01T00:58:41.904Z,8.05
2023-10-01T01:03:44.945Z,7.00
2023-10-01T01:08:55.801Z,7.70
2023-10-01T01:13:58.829Z,7.72
2023-10-01T01:19:01.854Z,8.07
2023-10-01T01:24:05.229Z,8.10
2023-10-01T01:29:18.545Z,8.35
2023-10-01T01:34:20.349Z,8.82
2023-10-01T01:39:50.362Z,7.57
2023-10-01T01:45:11.866Z,7.78
2023-10-01T01:50:27.821Z,7.65
2023-10-01T01:55:30.586Z,7.80
2023-10-01T02:00:47.799Z,8.57
2023-10-01T02:05:49.632Z,7.93
2023-10-01T02:10:57.338Z,8.38
2023-10-01T02:16:19.174Z,7.30
2023-10-01T02:21:40.842Z,6.78
2023-10-01T02:26:43.699Z,6.03
2023-10-01T02:31:56.397Z,6.80
2023-10-01T02:37:04.863Z,6.03
2023-10-01T02:42:09.814Z,6.25
2023-10-01T02:47:18.249Z,6.88
2023-10-01T02:52:27.968Z,6.32
2023-10-01T02:57:34.833Z,6.68
2023-10-01T03:02:39.826Z,6.40
2023-10-01T03:07:46.508Z,5.65
2023-10-01T03:12:51.124Z,6.10
2023-10-01T03:18:07.139Z,6.85
2023-10-01T03:23:25.984Z,6.88
2023-10-01T03:28:30.226Z,6.65
2023-10-01T03:33:31.863Z,8.05
2023-10-01T03:38:33.604Z,6.15
2023-10-01T03:43:39.933Z,7.38
2023-10-01T03:49:02.946Z,7.72
2023-10-01T03:54:07.883Z,6.85
2023-10-01T03:59:17.154Z,7.20
2023-10-01T04:04:20.838Z,7.82
2023-10-01T04:09:27.299Z,8.20
2023-10-01T04:14:31.164Z,8.40
2023-10-01T04:19:33.134Z,7.05
2023-10-01T04:24:35.654Z,6.47
2023-10-01T04:29:46.210Z,5.93
2023-10-01T04:34:48.854Z,6.57
2023-10-01T04:39:50.460Z,6.07
2023-10-01T04:44:57.952Z,7.30
2023-10-01T04:50:00.694Z,6.20
2023-10-01T04:55:17.225Z,6.00
2023-10-01T05:00:23.950Z,5.55
2023-10-01T05:05:28.049Z,5.18
2023-10-01T05:10:29.727Z,5.88
2023-10-01T05:15:37.971Z,7.25
2023-10-01T05:20:39.719Z,7.47
2023-10-01T05:25:46.906Z,6.07
2023-10-01T05:30:50.539Z,6.65
2023-10-01T05:35:58.549Z,6.22
2023-10-01T05:41:02.469Z,7.15
2023-10-01T05:46:10.373Z,6.30
2023-10-01T05:51:16.222Z,6.00
2023-10-01T05:56:21.110Z,6.07
2023-10-01T06:01:23.500Z,7.10
2023-10-01T06:06:25.716Z,6.97
2023-10-01T06:11:40.245Z,6.15
2023-10-01T06:16:42.090Z,6.70
2023-10-01T06:21:45.844Z,6.82
2023-10-01T06:26:47.704Z,7.60
2023-10-01T06:32:01.414Z,8.63
2023-10-01T06:37:03.289Z,9.93
2023-10-01T06:42:21.548Z,9.10
2023-10-01T06:47:27.344Z,8.02
2023-10-01T06:52:36.830Z,8.45
2023-10-01T06:57:40.278Z,9.68
2023-10-01T07:02:43.437Z,9.25
2023-10-01T07:07:49.848Z,8.32
2023-10-01T07:13:05.962Z,9.45
2023-10-01T07:18:17.601Z,7.43
2023-10-01T07:23:22.781Z,8.07
2023-10-01T07:28:26.125Z,7.65
2023-10-01T07:33:29.810Z,7.03
2023-10-01T07:38:47.983Z,7.10
2023-10-01T07:43:55.086Z,6.50
2023-10-01T07:49:01.795Z,6.53
2023-10-01T07:54:12.748Z,5.90
2023-10-01T07:59:29.697Z,7.43
2023-10-01T08:04:52.100Z,6.05
2023-10-01T08:09:55.264Z,7.18
2023-10-01T08:15:16.105Z,5.47
2023-10-01T08:20:23.033Z,5.55
2023-10-01T08:25:27.102Z,5.50
2023-10-01T08:30:41.206Z,6.05
2023-10-01T08:35:57.892Z,5.45
2023-10-01T08:41:03.605Z,5.60
2023-10-01T08:46:18.864Z,5.65
2023-10-01T08:51:21.184Z,5.40
2023-10-01T08:56:33.879Z,5.15
2023-10-01T09:01:35.795Z,4.80
2023-10-01T09:07:00.414Z,5.15
2023-10-01T09:12:19.337Z,5.47
2023-10-01T09:17:28.893Z,4.93
2023-10-01T09:22:33.587Z,4.85
2023-10-01T09:27:36.027Z,4.55
2023-10-01T09:32:53.971Z,4.63
2023-10-01T09:38:12.872Z,4.03
2023-10-01T09:43:42.149Z,5.37
2023-10-01T09:48:50.103Z,5.23
2023-10-01T09:54:03.905Z,4.82
2023-10-01T09:59:09.171Z,5.63
2023-10-01T10:04:12.114Z,4.97
2023-10-01T10:09:27.467Z,5.53
2023-10-01T10:14:29.087Z,4.70
2023-10-01T10:19:48.567Z,5.50
2023-10-01T10:24:56.056Z,5.20
2023-10-01T10:30:06.659Z,5.40
2023-10-01T10:35:16.122Z,4.60
2023-10-01T10:40:28.482Z,5.43
2023-10-01T10:45:48.814Z,4.80
2023-10-01T10:51:12.713Z,4.65
2023-10-01T10:56:36.711Z,4.70
2023-10-01T11:01:48.700Z,4.20
2023-10-01T11:07:03.392Z,4.93
2023-10-01T11:12:37.017Z,4.82
2023-10-01T11:17:41.870Z,4.90
2023-10-01T11:22:56.341Z,5.10
2023-10-01T11:28:07.502Z,4.82
2023-10-01T11:33:10.748Z,5.78
2023-10-01T11:38:21.529Z,4.80
2023-10-01T11:43:28.559Z,4.93
2023-10-01T11:54:54.140Z,4.78
2023-10-01T11:59:57.896Z,4.80
2023-10-01T12:05:03.623Z,4.75
2023-10-01T12:10:06.818Z,5.03
2023-10-01T12:15:34.217Z,4.85
2023-10-01T12:20:51.237Z,4.65
2023-10-01T12:25:53.014Z,5.10
2023-10-01T12:31:00.123Z,5.05
2023-10-01T12:36:04.582Z,4.70
2023-10-01T12:41:06.995Z,4.47
2023-10-01T12:46:19.779Z,5.03
2023-10-01T12:51:22.254Z,5.05
2023-10-01T12:56:43.798Z,4.82
2023-10-01T13:01:51.991Z,5.03
2023-10-01T13:07:04.948Z,4.45
2023-10-01T13:12:26.558Z,5.43
2023-10-01T13:17:36.408Z,5.10
2023-10-01T13:22:53.455Z,4.85
2023-10-01T13:28:07.569Z,5.47
2023-10-01T13:33:14.483Z,5.05
2023-10-01T13:38:29.132Z,5.15
2023-10-01T13:43:57.998Z,5.57
2023-10-01T13:49:18.026Z,4.90
2023-10-01T13:54:37.852Z,4.18
2023-10-01T14:00:10.062Z,4.80
2023-10-01T14:05:30.347Z,4.50
2023-10-01T14:10:40.066Z,4.78
2023-10-01T14:15:42.195Z,4.72
2023-10-01T14:20:43.779Z,4.82
2023-10-01T14:25:54.396Z,4.97
2023-10-01T14:31:07.619Z,5.10
2023-10-01T14:36:15.352Z,4.70
2023-10-01T14:41:17.343Z,5.45
2023-10-01T14:46:20.936Z,5.13
2023-10-01T14:51:30.278Z,4.80
2023-10-01T14:56:35.432Z,4.80
2023-10-01T15:01:41.708Z,5.05
2023-10-01T15:06:43.347Z,5.03
2023-10-01T15:11:50.077Z,4.85
2023-10-01T15:17:00.557Z,4.93
2023-10-01T15:22:11.187Z,5.23
2023-10-01T15:27:13.712Z,4.68
2023-10-01T15:32:18.236Z,5.05
2023-10-01T15:37:19.924Z,4.65
2023-10-01T15:42:24.382Z,4.93
2023-10-01T15:47:37.930Z,5.63
2023-10-01T15:52:55.021Z,5.10
2023-10-01T15:58:02.313Z,4.72
2023-10-01T16:03:12.945Z,5.43
2023-10-01T16:08:24.112Z,5.10
2023-10-01T16:13:31.464Z,5.75
2023-10-01T16:18:35.473Z,4.70
2023-10-01T16:23:38.158Z,5.20
2023-10-01T16:28:41.788Z,5.88
2023-10-01T16:33:48.239Z,4.97
2023-10-01T16:38:52.607Z,5.45
2023-10-01T16:43:54.759Z,4.93
2023-10-01T16:49:00.099Z,4.57
2023-10-01T16:54:14.827Z,4.82
2023-10-01T16:59:22.754Z,5.85
2023-10-01T17:04:29.169Z,5.97
2023-10-01T17:09:34.775Z,7.00
2023-10-01T17:14:37.457Z,6.78
2023-10-01T17:19:40.731Z,5.80
2023-10-01T17:24:47.522Z,6.20
2023-10-01T17:29:50.056Z,6.22
2023-10-01T17:34:52.673Z,5.38
2023-10-01T17:40:01.408Z,6.07
2023-10-01T17:45:03.351Z,5.50
2023-10-01T17:50:11.858Z,6.18
2023-10-01T17:55:27.033Z,7.63
2023-10-01T18:00:42.674Z,6.82
2023-10-01T18:06:00.095Z,6.72
2023-10-01T18:11:11.060Z,7.05
2023-10-01T18:16:26.803Z,7.78
2023-10-01T18:21:30.100Z,7.53
2023-10-01T18:26:32.177Z,7.65
2023-10-01T18:31:34.507Z,7.05
2023-10-01T18:36:36.164Z,7.20
2023-10-01T18:41:42.032Z,6.15
2023-10-01T18:46:43.719Z,6.40
2023-10-01T18:51:51.859Z,7.07
2023-10-01T18:56:59.334Z,6.82
2023-10-01T19:02:01.650Z,6.78
2023-10-01T19:07:03.440Z,6.30
2023-10-01T19:12:05.543Z,6.68
2023-10-01T19:17:08.563Z,6.15
2023-10-01T19:22:12.162Z,6.10
2023-10-01T19:27:13.932Z,6.55
2023-10-01T19:32:15.713Z,7.18
2023-10-01T19:37:17.638Z,6.75
2023-10-01T19:42:25.307Z,7.28
2023-10-01T19:47:27.115Z,7.15
2023-10-01T19:52:30.995Z,7.32
2023-10-01T19:57:39.699Z,7.30
2023-10-01T20:02:45.563Z,7.60
2023-10-01T20:07:48.504Z,6.68
2023-10-01T20:12:50.924Z,8.10
2023-10-01T20:18:08.835Z,7.00
2023-10-01T20:23:10.487Z,8.05
2023-10-01T20:28:12.134Z,8.52
2023-10-01T20:33:14.975Z,8.10
2023-10-01T20:38:27.175Z,7.43
2023-10-01T20:43:33.423Z,8.88
2023-10-01T20:48:44.394Z,8.82
2023-10-01T20:53:47.469Z,7.70
2023-10-01T20:58:50.432Z,9.38
2023-10-01T21:03:53.466Z,8.25
2023-10-01T21:08:55.114Z,9.38
2023-10-01T21:14:04.120Z,8.05
2023-10-01T21:19:12.982Z,6.97
2023-10-01T21:24:14.714Z,7.20
2023-10-01T21:29:22.286Z,7.47
2023-10-01T21:34:25.078Z,7.80
2023-10-01T21:39:27.513Z,7.55
2023-10-01T21:44:33.645Z,7.18
2023-10-01T21:49:50.888Z,7.63
2023-10-01T21:54:53.168Z,8.52
2023-10-01T21:59:57.357Z,7.30
2023-10-01T22:05:00.454Z,7.80
2023-10-01T22:10:09.070Z,8.05
2023-10-01T22:15:25.458Z,7.93
2023-10-01T22:20:31.581Z,8.50
2023-10-01T22:25:33.508Z,9.43
2023-10-01T22:30:35.147Z,10.02
2023-10-01T22:35:37.946Z,9.88
2023-10-01T22:40:58.927Z,8.05
2023-10-01T22:46:08.438Z,7.18
2023-10-01T22:51:22.571Z,7.57
2023-10-01T22:56:24.475Z,7.43
2023-10-01T23:01:28.120Z,7.85
2023-10-01T23:06:29.841Z,8.25
2023-10-01T23:11:31.420Z,7.75
2023-10-01T23:16:34.593Z,7.90
2023-10-01T23:21:54.543Z,7.55
2023-10-01T23:26:58.077Z,8.68
2023-10-01T23:32:18.560Z,7.65
2023-10-01T23:37:39.070Z,6.53
2023-10-01T23:42:47.087Z,6.32
2023-10-01T23:48:02.179Z,6.45
2023-10-01T23:53:07.425Z,6.35
2023-10-01T23:58:15.854Z,6.70
